Flight Track Log - Related Links

Times and Time Zones

All times are in EDT time to prevent confusion due to time zone crossing. See the LXJ437 flight status page for this flight to view local times or setup timezone preferences in your user account.

Time Position Orientation Groundspeed Altitude Reporting Facility
EDT Latitude Longitude Course Direction KTS MPH feet Rate Location/Type
Tue 11:19:24 AM 43.5706 -110.7569 138° Southeast 192 221 8,200  Level Salt Lake Center
Tue 11:20:26 AM 43.5014 -110.8056 207° Southwest 228 262 12,600 3,774 Climbing Salt Lake Center
Tue 11:21:28 AM 43.4292 -110.8069 181° South 280 322 16,000 3,048 Climbing Salt Lake Center
Tue 11:22:00 AM 43.0577 -110.0613 138° Southeast  Level Estimated
Tue 11:22:30 AM 43.3606 -110.7239 139° Southeast 330 380 18,900  Level Salt Lake Center
Tue 11:23:00 AM 42.9657 -109.9498 138° Southeast  Level Estimated
Tue 11:23:32 AM 43.2825 -110.6281 138° Southeast 365 420 22,100  Level Salt Lake Center
Tue 11:24:00 AM 42.8736 -109.8385 138° Southeast  Level Estimated
Tue 11:24:34 AM 43.2061 -110.5369 139° Southeast 378 435 24,700  Level Salt Lake Center
Tue 11:25:36 AM 43.1114 -110.4219 138° Southeast 403 464 27,400 1,597 Climbing Salt Lake Center
Tue 11:26:38 AM 43.0244 -110.3200 139° Southeast 425 489 28,000 290 Climbing Salt Lake Center
Tue 11:27:40 AM 42.9161 -110.1881 138° Southeast 462 532 28,000 339 Level Salt Lake Center
Tue 11:28:42 AM 42.8261 -110.0786 138° Southeast 455 524 28,700 1,161 Climbing Salt Lake Center
Tue 11:29:44 AM 42.7158 -109.9472 139° Southeast 471 542 30,400 1,548 Climbing Salt Lake Center
Tue 11:30:46 AM 42.6186 -109.8328 139° Southeast 472 543 31,900 1,548 Climbing Salt Lake Center
Tue 11:31:48 AM 42.5081 -109.6997 138° Southeast 474 545 33,600 1,548 Climbing Salt Lake Center
Tue 11:32:50 AM 42.4122 -109.5886 139° Southeast 474 545 35,100 1,548 Climbing Salt Lake Center
Tue 11:33:52 AM 42.3022 -109.4583 139° Southeast 472 543 36,800 1,548 Climbing Salt Lake Center
Tue 11:34:54 AM 42.2089 -109.3489 139° Southeast 467 537 38,300 1,392 Climbing Salt Lake Center
Tue 11:35:57 AM 42.1164 -109.2425 140° Southeast 461 531 39,700 1,200 Climbing Salt Lake Center
Tue 11:36:59 AM 42.0106 -109.1183 139° Southeast 453 521 40,800 629 Climbing Salt Lake Center
Tue 11:38:01 AM 41.9178 -109.0122 140° Southeast 453 521 41,000 97 Climbing Salt Lake Center
Tue 11:39:03 AM 41.8053 -108.8817 139° Southeast 471 542 41,000  Level Salt Lake Center
Tue 11:40:05 AM 41.7081 -108.7703 139° Southeast 476 548 41,000  Level Salt Lake Center
Tue 11:41:07 AM 41.5964 -108.6428 139° Southeast 470 541 41,000  Level Salt Lake Center
Tue 11:42:09 AM 41.5006 -108.5328 139° Southeast 471 542 41,000  Level Salt Lake Center
Tue 11:43:11 AM 41.4053 -108.4269 140° Southeast 466 536 41,000  Level Salt Lake Center
Tue 11:44:13 AM 41.2939 -108.3022 140° Southeast 468 539 41,000  Level Salt Lake Center
Tue 11:45:15 AM 41.1969 -108.1942 140° Southeast 472 543 41,000  Level Salt Lake Center
Tue 11:46:17 AM 41.0833 -108.0672 140° Southeast 477 549 41,000  Level Salt Lake Center
Tue 11:47:19 AM 40.9861 -107.9608 140° Southeast 475 547 41,000  Level Salt Lake Center
Tue 11:48:21 AM 40.8719 -107.8331 140° Southeast 480 552 41,000  Level Salt Lake Center
Tue 11:49:02 AM 40.8061 -107.7608 140° Southeast 478 550 41,000  Level Denver Center
Tue 11:50:04 AM 40.6939 -107.6375 140° Southeast 478 550 41,000  Level Denver Center
Tue 11:51:06 AM 40.5942 -107.5306 141° Southeast 480 552 41,000  Level Denver Center
Tue 11:52:08 AM 40.4950 -107.4208 140° Southeast 484 557 41,000  Level Denver Center
Tue 11:53:10 AM 40.3775 -107.2953 141° Southeast 486 559 41,000  Level Denver Center
Tue 11:54:12 AM 40.2761 -107.1872 141° Southeast 489 563 41,000  Level Denver Center
Tue 11:55:14 AM 40.1572 -107.0589 140° Southeast 493 567 41,000  Level Denver Center
Tue 11:56:16 AM 40.0556 -106.9511 141° Southeast 492 566 41,000  Level Denver Center
Tue 11:57:18 AM 39.9375 -106.8256 141° Southeast 490 564 41,000  Level Denver Center
Tue 11:58:20 AM 39.8439 -106.7261 141° Southeast 492 566 41,000  Level Denver Center
Tue 11:59:24 AM 39.7144 -106.5900 141° Southeast 493 567 41,000  Level Denver Center
Tue 12:00:26 PM 39.6069 -106.4761 141° Southeast 491 565 41,000  Level Denver Center
Tue 12:01:28 PM 39.4964 -106.3614 141° Southeast 500 575 41,000  Level Denver Center
Tue 12:02:30 PM 39.3897 -106.2503 141° Southeast 498 573 41,000  Level Denver Center
Tue 12:03:32 PM 39.2814 -106.1367 141° Southeast 500 575 41,000  Level Denver Center
Tue 12:04:46 PM 39.1722 -106.0258 142° Southeast 502 578 41,000  Level Denver Center
Tue 12:06:01 PM 39.0194 -105.8689 141° Southeast 504 580 41,000  Level Denver Center
Tue 12:07:03 PM 38.8892 -105.7361 142° Southeast 500 575 41,000  Level Denver Center
Tue 12:08:05 PM 38.7803 -105.6236 141° Southeast 504 580 41,000  Level Denver Center
Tue 12:09:07 PM 38.6706 -105.5131 142° Southeast 504 580 41,000  Level Denver Center
Tue 12:10:09 PM 38.5606 -105.4033 142° Southeast 504 580 41,000  Level Denver Center
Tue 12:11:11 PM 38.4294 -105.2706 142° Southeast 505 581 41,000  Level Denver Center
Tue 12:12:14 PM 38.3147 -105.1561 142° Southeast 506 582 41,000  Level Denver Center
Tue 12:13:16 PM 38.2083 -105.0503 142° Southeast 507 583 41,000  Level Denver Center
Tue 12:14:18 PM 38.0839 -104.9269 142° Southeast 508 585 41,000  Level Denver Center
Tue 12:15:20 PM 37.9767 -104.8217 142° Southeast 508 585 41,000  Level Denver Center
Tue 12:16:22 PM 37.8517 -104.7006 143° Southeast 507 583 41,000  Level Denver Center
Tue 12:17:24 PM 37.7453 -104.5942 142° Southeast 510 587 41,000  Level Denver Center
Tue 12:18:26 PM 37.6214 -104.4742 142° Southeast 504 580 41,000  Level Denver Center
Tue 12:19:28 PM 37.5161 -104.3719 142° Southeast 503 579 41,000  Level Denver Center
Tue 12:20:42 PM 37.3939 -104.2547 143° Southeast 501 577 41,000  Level Denver Center
Tue 12:21:44 PM 37.2547 -104.1194 142° Southeast 500 575 41,000  Level Denver Center
Tue 12:22:47 PM 37.1497 -104.0183 142° Southeast 500 575 41,000  Level Denver Center
Tue 12:24:01 PM 37.0281 -103.9019 143° Southeast 497 572 41,000  Level Denver Center
Tue 12:25:03 PM 36.9064 -103.7844 142° Southeast 495 570 41,000  Level Denver Center
Tue 12:26:05 PM 36.7833 -103.6692 143° Southeast 494 568 41,000  Level Denver Center
Tue 12:27:07 PM 36.6778 -103.5708 143° Southeast 493 567 41,000  Level Denver Center
Tue 12:28:18 PM 36.5472 -103.4478 143° Southeast 496 571 41,000  Level Albuquerque Center
Tue 12:29:20 PM 36.4358 -103.3431 143° Southeast 496 571 41,000  Level Albuquerque Center
Tue 12:30:22 PM 36.3244 -103.2381 143° Southeast 497 572 41,000  Level Albuquerque Center
Tue 12:31:24 PM 36.1947 -103.1167 143° Southeast 496 571 41,000  Level Albuquerque Center
Tue 12:32:26 PM 36.0819 -103.0133 143° Southeast 497 572 41,000  Level Albuquerque Center
Tue 12:33:28 PM 35.9694 -102.9092 143° Southeast 499 574 41,000  Level Albuquerque Center
Tue 12:34:30 PM 35.8589 -102.8083 144° Southeast 501 577 41,000  Level Albuquerque Center
Tue 12:35:32 PM 35.7475 -102.7053 143° Southeast 501 577 41,000  Level Albuquerque Center
Tue 12:36:34 PM 35.6347 -102.6036 144° Southeast 503 579 41,000  Level Albuquerque Center
Tue 12:37:36 PM 35.5217 -102.5014 144° Southeast 506 582 41,000  Level Albuquerque Center
Tue 12:38:38 PM 35.3872 -102.3789 143° Southeast 505 581 41,000  Level Albuquerque Center
Tue 12:39:40 PM 35.2747 -102.2783 144° Southeast 504 580 41,000  Level Albuquerque Center
Tue 12:40:42 PM 35.1619 -102.1764 144° Southeast 506 582 41,000  Level Albuquerque Center
Tue 12:41:44 PM 35.0492 -102.0758 144° Southeast 508 585 41,000  Level Albuquerque Center
Tue 12:42:46 PM 34.9131 -101.9547 144° Southeast 510 587 41,000  Level Albuquerque Center
Tue 12:43:48 PM 34.8006 -101.8528 143° Southeast 510 587 41,000  Level Albuquerque Center
Tue 12:44:50 PM 34.6872 -101.7522 144° Southeast 508 585 41,000  Level Albuquerque Center
Tue 12:45:52 PM 34.5756 -101.6536 144° Southeast 502 578 41,000  Level Albuquerque Center
Tue 12:46:54 PM 34.4639 -101.5550 144° Southeast 500 575 41,000  Level Albuquerque Center
Tue 12:47:49 PM 34.3622 -101.4664 144° Southeast 499 574 41,000  Level Fort Worth Center
Tue 12:48:49 PM 34.2342 -101.3547 144° Southeast 504 580 41,000  Level Fort Worth Center
Tue 12:49:49 PM 34.1389 -101.2703 144° Southeast 495 570 41,000  Level Fort Worth Center
Tue 12:50:48 PM 34.0169 -101.1644 144° Southeast 495 570 41,000  Level Fort Worth Center
Tue 12:51:49 PM 33.9111 -101.0750 145° Southeast 501 577 41,000  Level Fort Worth Center
Tue 12:52:48 PM 33.8011 -100.9803 144° Southeast 501 577 41,000  Level Fort Worth Center
Tue 12:53:48 PM 33.6931 -100.8836 143° Southeast 496 571 41,000  Level Fort Worth Center
Tue 12:54:48 PM 33.5689 -100.7764 144° Southeast 496 571 41,000  Level Fort Worth Center
Tue 12:55:48 PM 33.4644 -100.6953 147° Southeast 496 571 41,000  Level Fort Worth Center
Tue 12:56:48 PM 33.3564 -100.5992 143° Southeast 496 571 41,000  Level Fort Worth Center
Tue 12:57:49 PM 33.2439 -100.5083 146° Southeast 496 571 41,000  Level Fort Worth Center
Tue 12:58:48 PM 33.1289 -100.4247 149° Southeast 496 571 41,000  Level Fort Worth Center
Tue 12:59:48 PM 33.0100 -100.3392 149° Southeast 491 565 41,000  Level Fort Worth Center
Tue 01:00:48 PM 32.9197 -100.2742 149° Southeast 491 565 41,000  Level Fort Worth Center
Tue 01:01:48 PM 32.7778 -100.1733 149° Southeast 486 559 41,000  Level Fort Worth Center
Tue 01:02:48 PM 32.6564 -100.0931 151° Southeast 481 554 41,000  Level Fort Worth Center
Tue 01:03:48 PM 32.5372 -100.0083 149° Southeast 496 571 41,000  Level Fort Worth Center
Tue 01:04:48 PM 32.4200 -99.9186 147° Southeast 501 577 41,000  Level Fort Worth Center
Tue 01:05:48 PM 32.3047 -99.8344 148° Southeast 501 577 41,000  Level Fort Worth Center
Tue 01:06:48 PM 32.1872 -99.7528 150° Southeast 496 571 41,000  Level Fort Worth Center
Tue 01:07:48 PM 32.0697 -99.6689 149° Southeast 496 571 41,000 -100 Level Fort Worth Center
Tue 01:08:48 PM 31.9522 -99.5853 149° Southeast 496 571 40,800 -1,300 Descending Fort Worth Center
Tue 01:09:48 PM 31.8431 -99.5067 149° Southeast 481 554 38,400 -2,788 Descending Fort Worth Center
Tue 01:11:38 PM 31.6381 -99.3656 150° Southeast 475 547 32,900 -2,860 Descending Houston Center
Tue 01:12:40 PM 31.5211 -99.2697 145° Southeast 506 582 30,200 -2,903 Descending Houston Center
Tue 01:13:42 PM 31.4189 -99.1172 128° Southeast 507 583 26,900 -2,806 Descending Houston Center
Tue 01:14:44 PM 31.3342 -98.9886 128° Southeast 496 571 24,400 -1,403 Descending Houston Center
Tue 01:15:46 PM 31.2481 -98.8608 128° Southeast 495 570 24,000 -195 Descending Houston Center
Tue 01:16:47 PM 31.1636 -98.7358 128° Southeast 488 562 24,000 -878 Level Houston Center
Tue 01:17:49 PM 31.0836 -98.6142 127° Southeast 471 542 22,200 -2,226 Descending Houston Center
Tue 01:18:51 PM 31.0078 -98.5000 128° Southeast 447 514 19,400 -2,710 Descending Houston Center
Tue 01:19:53 PM 30.9319 -98.3900 129° Southeast 437 503 16,600 -2,468 Descending Houston Center
Tue 01:20:55 PM 30.8600 -98.2822 128° Southeast 423 487 14,300 -1,839 Descending Houston Center
Tue 01:21:57 PM 30.7867 -98.1736 128° Southeast 368 423 12,800 -1,790 Descending Houston Center
Tue 01:22:59 PM 30.7275 -98.0875 129° Southeast 344 396 10,600 -1,645 Descending Houston Center
Tue 01:24:01 PM 30.6667 -97.9975 128° Southeast 349 402 9,400 -1,561 Descending Houston Center
Tue 01:25:02 PM 30.6094 -97.9236 132° Southeast 314 361 7,400 -2,000 Descending Houston Center
Tue 01:26:04 PM 30.5553 -97.8517 131° Southeast 296 341 5,300 -1,161 Descending Houston Center
Tue 01:27:06 PM 30.5042 -97.7822 130° Southeast 287 330 5,000 -387 Descending Houston Center
Tue 01:28:08 PM 30.4539 -97.7169 132° Southeast 275 316 4,500 -484 Descending Houston Center
Tue 01:29:10 PM 30.3792 -97.6633 148° Southeast 269 310 4,000 -629 Descending Houston Center
Tue 01:30:12 PM 30.3144 -97.6606 178° South 237 273 3,200 -1,065 Descending Houston Center
Tue 01:31:14 PM 30.2642 -97.6586 178° South 202 232 1,800 -1,024 Descending Houston Center
Tue 01:32:15 PM 30.2286 -97.6567 177° South 154 177 1,100 -390 Descending Houston Center
Tue 01:33:17 PM 30.1947 -97.6553 178° South 149 171 1,000 -97 Descending Houston Center
Tue 01:35:00 PM 30.1833 -97.6667 221° Southwest  Level FlightAware Approximate

Login

Don't have an account? Register now (free) for customized features, flight alerts, and more!